createdAt,value
2022-12-11T00:01:42.929Z,69.35
2022-12-11T00:04:09.228Z,67.28
2022-12-11T00:06:35.500Z,68.43
2022-12-11T00:09:01.840Z,65.30
2022-12-11T00:11:28.100Z,65.85
2022-12-11T00:13:54.380Z,65.63
2022-12-11T00:16:26.544Z,62.75
2022-12-11T00:18:53.538Z,62.13
2022-12-11T00:21:19.944Z,60.45
2022-12-11T00:23:46.252Z,59.15
2022-12-11T00:26:12.505Z,58.63
2022-12-11T00:28:38.771Z,58.75
2022-12-11T00:31:05.303Z,58.50
2022-12-11T00:33:31.737Z,57.47
2022-12-11T00:35:58.119Z,56.60
2022-12-11T00:38:24.419Z,55.13
2022-12-11T00:40:50.708Z,53.80
2022-12-11T00:43:16.944Z,54.13
2022-12-11T00:45:43.338Z,51.30
2022-12-11T00:48:09.759Z,52.45
2022-12-11T00:50:36.211Z,52.83
2022-12-11T00:53:02.564Z,50.63
2022-12-11T00:55:28.816Z,52.13
2022-12-11T00:57:55.279Z,51.28
2022-12-11T01:00:21.515Z,49.80
2022-12-11T01:02:50.623Z,49.63
2022-12-11T01:05:16.936Z,48.38
2022-12-11T01:07:43.348Z,48.60
2022-12-11T01:10:09.663Z,46.85
2022-12-11T01:12:36.017Z,47.45
2022-12-11T01:15:02.547Z,45.70
2022-12-11T01:17:28.920Z,45.72
2022-12-11T01:19:55.267Z,43.78
2022-12-11T01:22:21.672Z,44.97
2022-12-11T01:24:47.991Z,45.33
2022-12-11T01:27:14.252Z,43.17
2022-12-11T01:29:40.600Z,43.05
2022-12-11T01:32:07.015Z,42.47
2022-12-11T01:34:33.294Z,44.63
2022-12-11T01:36:59.564Z,41.67
2022-12-11T01:39:26.023Z,40.80
2022-12-11T01:41:52.296Z,40.30
2022-12-11T01:44:18.649Z,40.42
2022-12-11T01:46:44.915Z,39.42
2022-12-11T01:49:11.351Z,40.40
2022-12-11T01:51:37.669Z,39.33
2022-12-11T01:54:03.996Z,38.10
2022-12-11T01:56:30.592Z,39.17
2022-12-11T01:58:56.841Z,36.47
2022-12-11T02:01:23.155Z,36.47
2022-12-11T02:03:50.043Z,37.63
2022-12-11T02:06:16.696Z,35.45
2022-12-11T02:08:43.940Z,35.90
2022-12-11T02:11:10.327Z,35.75
2022-12-11T02:13:37.065Z,35.10
2022-12-11T02:16:04.318Z,34.58
2022-12-11T02:23:45.479Z,32.90
2022-12-11T02:26:11.791Z,32.33
2022-12-11T02:28:38.214Z,32.42
2022-12-11T02:31:04.514Z,33.17
2022-12-11T02:33:30.820Z,30.83
2022-12-11T02:35:57.542Z,31.95
2022-12-11T02:38:23.925Z,32.78
2022-12-11T02:40:50.259Z,32.42
2022-12-11T02:43:16.567Z,30.05
2022-12-11T02:45:42.905Z,30.75
2022-12-11T02:48:09.248Z,29.70
2022-12-11T02:50:35.691Z,29.42
2022-12-11T02:53:02.060Z,30.05
2022-12-11T02:55:28.405Z,28.10
2022-12-11T02:57:54.761Z,29.20
2022-12-11T03:00:21.128Z,27.58
2022-12-11T03:02:47.597Z,29.08
2022-12-11T03:05:14.032Z,28.27
2022-12-11T03:07:40.378Z,29.50
2022-12-11T03:10:06.624Z,27.70
2022-12-11T03:12:32.992Z,27.73
2022-12-11T03:15:00.296Z,27.13
2022-12-11T03:17:26.756Z,26.38
2022-12-11T03:19:53.250Z,26.17
2022-12-11T03:22:19.664Z,25.75
2022-12-11T03:24:45.959Z,25.20
2022-12-11T03:27:12.368Z,25.67
2022-12-11T03:29:38.834Z,25.92
2022-12-11T03:32:05.112Z,25.88
2022-12-11T03:34:31.402Z,25.65
2022-12-11T03:36:57.651Z,25.30
2022-12-11T03:39:23.953Z,24.67
2022-12-11T03:41:50.315Z,24.08
2022-12-11T03:44:16.627Z,24.65
2022-12-11T03:46:42.963Z,23.45
2022-12-11T03:49:09.270Z,24.98
2022-12-11T03:51:35.586Z,23.58
2022-12-11T03:54:02.012Z,23.60
2022-12-11T03:56:28.300Z,23.48
2022-12-11T03:58:54.531Z,24.45
2022-12-11T04:01:20.970Z,23.70
2022-12-11T04:03:47.993Z,21.92
2022-12-11T04:06:15.035Z,23.65
2022-12-11T04:08:41.838Z,22.95
2022-12-11T04:11:08.841Z,22.17
2022-12-11T04:13:36.683Z,24.48
2022-12-11T04:16:03.692Z,21.00
2022-12-11T04:18:30.304Z,22.95
2022-12-11T04:20:57.555Z,21.80
2022-12-11T04:23:24.069Z,21.45
2022-12-11T04:25:50.684Z,21.85
2022-12-11T04:28:17.512Z,21.77
2022-12-11T04:30:45.115Z,21.58
2022-12-11T04:33:11.759Z,21.25
2022-12-11T04:35:38.277Z,21.65
2022-12-11T04:38:04.663Z,20.08
2022-12-11T04:40:30.963Z,21.38
2022-12-11T04:42:57.215Z,20.50
2022-12-11T04:45:23.537Z,21.35
2022-12-11T04:47:49.815Z,20.80
2022-12-11T04:50:16.199Z,20.35
2022-12-11T04:52:42.499Z,21.27
2022-12-11T04:55:09.156Z,20.27
2022-12-11T04:57:35.801Z,20.50
2022-12-11T05:00:02.094Z,19.52
2022-12-11T05:02:28.406Z,20.40
2022-12-11T05:04:54.786Z,18.90
2022-12-11T05:07:21.119Z,19.02
2022-12-11T05:09:47.423Z,19.02
2022-12-11T05:12:13.823Z,19.92
2022-12-11T05:14:40.176Z,19.40
2022-12-11T05:17:06.552Z,20.35
2022-12-11T05:19:32.880Z,19.60
2022-12-11T05:21:59.188Z,19.27
2022-12-11T05:24:25.487Z,18.13
2022-12-11T05:26:51.723Z,18.90
2022-12-11T05:29:17.985Z,18.77
2022-12-11T05:31:45.292Z,19.05
2022-12-11T05:34:11.607Z,18.52
2022-12-11T05:36:37.869Z,18.65
2022-12-11T05:39:04.173Z,18.90
2022-12-11T05:41:30.491Z,18.15
2022-12-11T05:43:56.856Z,18.20
2022-12-11T05:46:23.165Z,18.40
2022-12-11T05:48:49.506Z,18.33
2022-12-11T05:51:15.892Z,18.65
2022-12-11T05:53:42.217Z,18.60
2022-12-11T05:56:08.739Z,18.27
2022-12-11T05:58:35.057Z,18.13
2022-12-11T06:01:01.416Z,17.98
2022-12-11T06:03:27.818Z,18.50
2022-12-11T06:05:54.091Z,16.60
2022-12-11T06:08:20.711Z,17.20
2022-12-11T06:10:47.078Z,17.33
2022-12-11T06:13:13.419Z,17.48
2022-12-11T06:15:39.750Z,17.63
2022-12-11T06:18:06.184Z,16.80
2022-12-11T06:20:32.644Z,17.52
2022-12-11T06:22:59.075Z,17.20
2022-12-11T06:25:25.367Z,16.85
2022-12-11T06:27:51.649Z,17.92
2022-12-11T06:30:17.995Z,17.15
2022-12-11T06:32:44.282Z,16.58
2022-12-11T06:35:10.721Z,16.48
2022-12-11T06:37:37.374Z,17.27
2022-12-11T06:40:03.695Z,16.83
2022-12-11T06:42:29.994Z,17.35
2022-12-11T06:44:56.224Z,16.00
2022-12-11T06:47:22.506Z,16.77
2022-12-11T06:49:48.807Z,16.63
2022-12-11T06:52:18.362Z,15.95
2022-12-11T06:54:45.277Z,16.95
2022-12-11T06:57:11.620Z,18.08
2022-12-11T06:59:37.970Z,16.52
2022-12-11T07:02:04.368Z,17.48
2022-12-11T07:04:30.777Z,18.27
2022-12-11T07:06:57.100Z,17.58
2022-12-11T07:09:23.334Z,16.77
2022-12-11T07:11:49.607Z,16.00
2022-12-11T07:14:15.915Z,16.25
2022-12-11T07:16:42.345Z,16.63
2022-12-11T07:19:08.703Z,17.08
2022-12-11T07:21:35.118Z,17.73
2022-12-11T07:24:01.409Z,16.80
2022-12-11T07:26:27.821Z,17.90
2022-12-11T07:28:54.060Z,16.70
2022-12-11T07:31:20.513Z,16.30
2022-12-11T07:33:46.839Z,17.58
2022-12-11T07:36:13.189Z,16.90
2022-12-11T07:38:39.436Z,17.75
2022-12-11T07:41:05.830Z,17.63
2022-12-11T07:43:33.079Z,17.88
2022-12-11T07:45:59.571Z,19.20
2022-12-11T07:48:25.878Z,18.20
2022-12-11T07:50:52.149Z,17.75
2022-12-11T07:53:18.559Z,17.98
2022-12-11T07:55:44.846Z,16.92
2022-12-11T07:58:11.190Z,18.52
2022-12-11T08:00:37.558Z,17.20
2022-12-11T08:03:03.860Z,16.98
2022-12-11T08:05:30.197Z,17.42
2022-12-11T08:07:56.591Z,17.42
2022-12-11T08:10:22.927Z,17.95
2022-12-11T08:12:49.219Z,18.08
2022-12-11T08:15:15.497Z,17.67
2022-12-11T08:17:41.771Z,17.42
2022-12-11T08:20:08.077Z,18.05
2022-12-11T08:22:34.593Z,17.80
2022-12-11T08:25:00.948Z,18.63
2022-12-11T08:27:27.374Z,17.73
2022-12-11T08:29:53.768Z,18.27
2022-12-11T08:32:20.190Z,18.80
2022-12-11T08:34:46.705Z,19.08
2022-12-11T08:37:13.012Z,17.48
2022-12-11T08:39:39.585Z,18.70
2022-12-11T08:42:05.838Z,18.23
2022-12-11T08:44:32.506Z,17.85
2022-12-11T08:46:58.996Z,18.80
2022-12-11T08:49:27.622Z,18.55
2022-12-11T08:51:57.547Z,18.80
2022-12-11T08:54:24.049Z,18.80
2022-12-11T08:56:54.808Z,18.55
2022-12-11T08:59:24.072Z,18.17
2022-12-11T09:01:50.495Z,18.48
2022-12-11T09:04:16.913Z,18.42
2022-12-11T09:06:43.231Z,19.38
2022-12-11T09:09:09.513Z,17.75
2022-12-11T09:11:35.831Z,17.05
2022-12-11T09:14:07.246Z,18.00
2022-12-11T09:16:34.107Z,17.80
2022-12-11T09:19:00.371Z,18.33
2022-12-11T09:21:26.636Z,17.77
2022-12-11T09:23:53.095Z,18.13
2022-12-11T09:26:19.455Z,17.70
2022-12-11T09:28:46.874Z,59.80
2022-12-11T09:41:47.772Z,148.25
2022-12-11T09:49:24.802Z,139.60
2022-12-11T09:51:52.751Z,135.13
2022-12-11T09:54:19.088Z,135.70
2022-12-11T09:56:45.412Z,130.48
2022-12-11T09:59:11.832Z,289.58
2022-12-11T10:01:38.192Z,298.30
2022-12-11T10:04:04.505Z,251.30
2022-12-11T10:06:30.805Z,238.52
2022-12-11T10:08:57.055Z,214.02
2022-12-11T10:11:23.290Z,199.75
2022-12-11T10:13:49.607Z,181.50
2022-12-11T10:16:15.935Z,169.35
2022-12-11T10:18:42.206Z,157.70
2022-12-11T10:21:08.470Z,144.90
2022-12-11T10:23:35.001Z,143.65
2022-12-11T10:33:55.809Z,112.82
2022-12-11T10:36:22.193Z,102.68
2022-12-11T10:43:57.821Z,86.25
2022-12-11T10:46:24.139Z,90.78
2022-12-11T10:48:50.437Z,145.07
2022-12-11T10:51:16.858Z,154.80
2022-12-11T10:53:43.193Z,147.80
2022-12-11T10:56:09.540Z,141.05
2022-12-11T11:01:17.878Z,125.97
2022-12-11T11:03:44.270Z,114.55
2022-12-11T11:06:10.563Z,107.18
2022-12-11T11:08:36.855Z,102.35
2022-12-11T11:11:03.178Z,97.50
2022-12-11T11:13:29.585Z,92.68
2022-12-11T11:15:55.955Z,87.53
2022-12-11T11:18:22.449Z,81.15
2022-12-11T11:20:48.711Z,79.55
2022-12-11T11:23:15.164Z,72.70
2022-12-11T11:25:41.639Z,70.43
2022-12-11T11:28:07.916Z,68.07
2022-12-11T11:30:34.243Z,64.03
2022-12-11T11:33:00.535Z,61.78
2022-12-11T11:35:26.801Z,57.83
2022-12-11T11:37:53.294Z,131.60
2022-12-11T11:42:49.213Z,167.00
2022-12-11T11:45:15.522Z,158.80
2022-12-11T11:47:41.834Z,144.30
2022-12-11T11:50:08.075Z,138.65
2022-12-11T11:52:34.371Z,134.05
2022-12-11T11:55:00.627Z,121.05
2022-12-11T11:57:26.986Z,115.20
2022-12-11T11:59:53.436Z,177.82
2022-12-11T12:02:19.890Z,226.30
2022-12-11T12:04:46.199Z,208.07
2022-12-11T12:07:12.490Z,188.40
2022-12-11T12:09:38.861Z,176.77
2022-12-11T12:12:05.276Z,170.85
2022-12-11T12:17:17.880Z,149.60
2022-12-11T12:19:47.523Z,147.80
2022-12-11T12:22:13.810Z,133.93
2022-12-11T12:24:40.152Z,129.52
2022-12-11T12:27:17.698Z,124.50
2022-12-11T12:29:52.725Z,116.13
2022-12-11T12:32:19.096Z,110.88
2022-12-11T12:34:45.500Z,187.30
2022-12-11T12:37:11.826Z,208.73
2022-12-11T12:39:38.078Z,187.52
2022-12-11T12:42:07.726Z,169.43
2022-12-11T12:52:16.920Z,133.15
2022-12-11T12:54:43.288Z,128.02
2022-12-11T12:57:09.775Z,116.30
2022-12-11T12:59:36.384Z,206.57
2022-12-11T13:02:02.837Z,210.90
2022-12-11T13:04:54.345Z,229.52
2022-12-11T13:07:15.395Z,198.98
2022-12-11T13:09:41.809Z,185.75
2022-12-11T13:12:08.228Z,176.75
2022-12-11T13:14:34.632Z,171.13
2022-12-11T13:17:00.977Z,304.60
2022-12-11T13:22:02.927Z,273.25
2022-12-11T13:24:29.293Z,258.02
2022-12-11T13:26:55.553Z,261.63
2022-12-11T13:29:21.832Z,254.73
2022-12-11T13:53:08.960Z,387.00
2022-12-11T13:58:10.415Z,392.58
2022-12-11T14:00:36.748Z,607.55
2022-12-11T14:03:03.434Z,597.10
2022-12-11T14:05:29.899Z,587.30
2022-12-11T14:07:56.418Z,592.70
2022-12-11T14:10:22.903Z,592.20
2022-12-11T14:12:49.178Z,593.22
2022-12-11T14:15:15.471Z,584.08
2022-12-11T14:17:41.707Z,570.22
2022-12-11T14:20:08.144Z,543.85
2022-12-11T14:22:34.632Z,596.50
2022-12-11T14:25:00.862Z,602.20
2022-12-11T14:27:27.101Z,592.63
2022-12-11T14:29:53.423Z,582.05
2022-12-11T14:34:53.234Z,573.17
2022-12-11T14:37:19.634Z,563.90
2022-12-11T14:39:45.978Z,557.03
2022-12-11T14:44:41.449Z,532.30
2022-12-11T14:47:07.732Z,656.92
2022-12-11T14:49:34.166Z,700.17
2022-12-11T14:52:00.865Z,712.63
2022-12-11T14:54:27.369Z,714.30
2022-12-11T14:56:53.709Z,704.45
2022-12-11T14:59:20.173Z,710.60
2022-12-11T15:01:46.456Z,708.35
2022-12-11T15:04:12.764Z,702.95
2022-12-11T15:06:39.209Z,705.05
2022-12-11T15:09:05.542Z,702.55
2022-12-11T15:11:31.919Z,687.67
2022-12-11T15:13:58.316Z,690.65
2022-12-11T15:16:24.673Z,466.27
2022-12-11T15:21:27.057Z,187.70
2022-12-11T15:23:53.696Z,230.43
2022-12-11T15:26:20.236Z,270.85
2022-12-11T15:28:46.571Z,224.95
2022-12-11T15:31:12.838Z,123.18
2022-12-11T15:33:39.283Z,92.25
2022-12-11T15:36:05.749Z,127.68
2022-12-11T15:38:32.082Z,132.15
2022-12-11T15:40:58.505Z,120.75
2022-12-11T15:43:24.972Z,280.90
2022-12-11T15:45:51.534Z,216.25
2022-12-11T15:48:18.060Z,367.80
2022-12-11T15:50:44.368Z,371.48
2022-12-11T15:53:10.655Z,359.45
2022-12-11T15:55:36.978Z,349.00
2022-12-11T15:58:03.289Z,336.50
2022-12-11T16:00:29.669Z,341.50
2022-12-11T16:02:55.999Z,326.88
2022-12-11T16:05:22.344Z,328.50
2022-12-11T16:07:48.764Z,317.63
2022-12-11T16:10:15.189Z,322.77
2022-12-11T16:12:41.614Z,308.80
2022-12-11T16:15:07.933Z,305.65
2022-12-11T16:17:34.212Z,298.33
2022-12-11T16:20:00.521Z,300.65
2022-12-11T16:22:26.878Z,291.15
2022-12-11T16:24:53.297Z,288.98
2022-12-11T16:27:23.037Z,286.58
2022-12-11T16:29:49.830Z,277.48
2022-12-11T16:32:16.148Z,276.23
2022-12-11T16:34:42.396Z,271.52
2022-12-11T16:37:08.775Z,274.23
2022-12-11T16:39:35.080Z,268.33
2022-12-11T16:42:01.348Z,253.27
2022-12-11T16:44:27.821Z,253.55
2022-12-11T16:46:54.055Z,250.05
2022-12-11T16:49:20.355Z,251.05
2022-12-11T16:51:46.662Z,244.38
2022-12-11T16:54:13.084Z,243.32
2022-12-11T16:56:39.376Z,239.23
2022-12-11T16:59:05.790Z,236.57
2022-12-11T17:01:32.350Z,228.77
2022-12-11T17:03:58.757Z,219.90
2022-12-11T17:06:25.156Z,220.40
2022-12-11T17:08:51.462Z,219.48
2022-12-11T17:11:17.744Z,210.82
2022-12-11T17:13:44.101Z,211.90
2022-12-11T17:16:10.455Z,207.75
2022-12-11T17:18:37.012Z,197.40
2022-12-11T17:21:03.401Z,195.82
2022-12-11T17:23:29.690Z,200.90
2022-12-11T17:25:56.591Z,188.77
2022-12-11T17:28:22.990Z,190.48
2022-12-11T17:30:49.328Z,188.07
2022-12-11T17:33:15.895Z,181.18
2022-12-11T17:35:42.188Z,178.60
2022-12-11T17:38:08.627Z,177.80
2022-12-11T17:40:35.035Z,173.63
2022-12-11T17:43:01.356Z,173.18
2022-12-11T17:45:27.668Z,170.40
2022-12-11T17:47:53.939Z,162.13
2022-12-11T17:50:20.258Z,163.93
2022-12-11T17:52:46.589Z,163.98
2022-12-11T17:55:13.215Z,156.35
2022-12-11T17:57:39.621Z,155.48
2022-12-11T18:00:05.958Z,151.00
2022-12-11T18:02:32.260Z,150.75
2022-12-11T18:04:58.569Z,151.63
2022-12-11T18:07:24.940Z,145.57
2022-12-11T18:09:51.277Z,145.05
2022-12-11T18:12:17.584Z,144.40
2022-12-11T18:14:43.882Z,142.38
2022-12-11T18:17:10.116Z,136.55
2022-12-11T18:19:39.180Z,136.15
2022-12-11T18:22:09.322Z,134.13
2022-12-11T18:24:35.739Z,131.10
2022-12-11T18:27:02.055Z,128.52
2022-12-11T18:29:28.350Z,127.55
2022-12-11T18:31:54.850Z,128.23
2022-12-11T18:34:21.196Z,123.55
2022-12-11T18:36:47.485Z,124.72
2022-12-11T18:39:13.883Z,121.40
2022-12-11T18:41:40.170Z,119.82
2022-12-11T18:44:09.689Z,117.40
2022-12-11T18:46:36.603Z,115.07
2022-12-11T18:49:02.937Z,117.03
2022-12-11T18:51:29.359Z,112.72
2022-12-11T18:53:55.746Z,114.55
2022-12-11T18:56:22.064Z,111.40
2022-12-11T18:58:48.515Z,109.07
2022-12-11T19:01:14.893Z,107.90
2022-12-11T19:03:41.296Z,107.57
2022-12-11T19:06:07.675Z,102.53
2022-12-11T19:08:33.903Z,104.82
2022-12-11T19:11:00.311Z,100.57
2022-12-11T19:13:26.555Z,99.50
2022-12-11T19:15:53.062Z,98.50
2022-12-11T19:18:19.435Z,93.95
2022-12-11T19:20:51.755Z,94.60
2022-12-11T19:23:21.868Z,92.57
2022-12-11T19:25:48.133Z,94.63
2022-12-11T19:28:14.435Z,91.30
2022-12-11T19:30:40.707Z,91.20
2022-12-11T19:33:07.012Z,91.10
2022-12-11T19:35:33.299Z,89.75
2022-12-11T19:37:59.655Z,87.90
2022-12-11T19:40:26.056Z,83.75
2022-12-11T19:42:52.319Z,83.43
2022-12-11T19:45:18.674Z,84.53
2022-12-11T19:47:45.091Z,81.22
2022-12-11T19:50:11.318Z,83.78
2022-12-11T19:52:42.864Z,81.78
2022-12-11T19:55:12.361Z,78.75
2022-12-11T19:57:38.898Z,77.05
2022-12-11T20:00:05.210Z,78.40
2022-12-11T20:02:31.603Z,74.47
2022-12-11T20:04:57.942Z,75.90
2022-12-11T20:07:30.330Z,78.57
2022-12-11T20:09:56.977Z,74.45
2022-12-11T20:12:23.228Z,72.07
2022-12-11T20:14:49.530Z,70.82
2022-12-11T20:17:16.088Z,70.82
2022-12-11T20:19:42.670Z,70.38
2022-12-11T20:22:08.963Z,69.45
2022-12-11T20:24:35.384Z,68.28
2022-12-11T20:27:01.710Z,66.47
2022-12-11T20:29:28.008Z,64.88
2022-12-11T20:31:54.361Z,66.22
2022-12-11T20:34:20.659Z,62.53
2022-12-11T20:36:46.914Z,63.03
2022-12-11T20:39:13.291Z,65.22
2022-12-11T20:41:39.695Z,63.45
2022-12-11T20:44:05.959Z,60.10
2022-12-11T20:46:32.459Z,59.15
2022-12-11T20:48:58.781Z,59.33
2022-12-11T20:51:26.255Z,58.15
2022-12-11T20:53:52.930Z,59.78
2022-12-11T20:56:19.402Z,59.70
2022-12-11T20:58:45.675Z,55.22
2022-12-11T21:01:11.997Z,56.72
2022-12-11T21:03:41.998Z,54.80
2022-12-11T21:06:08.608Z,54.40
2022-12-11T21:08:34.967Z,55.03
2022-12-11T21:11:01.335Z,51.30
2022-12-11T21:13:27.615Z,52.75
2022-12-11T21:15:53.941Z,52.58
2022-12-11T21:18:20.244Z,51.20
2022-12-11T21:20:46.522Z,50.92
2022-12-11T21:23:12.867Z,52.15
2022-12-11T21:25:39.309Z,51.60
2022-12-11T21:28:05.620Z,51.35
2022-12-11T21:30:31.878Z,49.70
2022-12-11T21:32:58.122Z,48.83
2022-12-11T21:35:24.498Z,48.53
2022-12-11T21:37:50.829Z,48.83
2022-12-11T21:40:17.138Z,47.15
2022-12-11T21:42:43.372Z,45.05
2022-12-11T21:47:56.104Z,44.78
2022-12-11T21:50:22.559Z,45.78
2022-12-11T21:52:48.858Z,44.67
2022-12-11T21:55:15.280Z,45.30
2022-12-11T21:57:41.569Z,42.78
2022-12-11T22:00:07.960Z,43.42
2022-12-11T22:02:40.465Z,43.65
2022-12-11T22:05:07.384Z,41.90
2022-12-11T22:07:33.922Z,42.58
2022-12-11T22:10:00.169Z,40.85
2022-12-11T22:12:26.495Z,41.22
2022-12-11T22:14:52.917Z,41.85
2022-12-11T22:17:19.252Z,38.45
2022-12-11T22:19:45.557Z,39.10
2022-12-11T22:22:11.912Z,39.50
2022-12-11T22:24:38.446Z,39.25
2022-12-11T22:27:04.723Z,39.55
2022-12-11T22:29:30.962Z,37.97
2022-12-11T22:31:57.320Z,38.30
2022-12-11T22:34:23.811Z,36.83
2022-12-11T22:36:50.228Z,37.33
2022-12-11T22:39:16.470Z,35.67
2022-12-11T22:41:42.847Z,36.10
2022-12-11T22:44:09.258Z,36.47
2022-12-11T22:46:35.675Z,37.08
2022-12-11T22:49:02.015Z,34.53
2022-12-11T22:51:28.307Z,34.35
2022-12-11T22:53:54.641Z,33.33
2022-12-11T22:56:20.998Z,34.50
2022-12-11T22:58:47.329Z,33.03
2022-12-11T23:01:13.603Z,32.30
2022-12-11T23:03:39.951Z,33.13
2022-12-11T23:06:06.436Z,34.17
2022-12-11T23:08:32.930Z,33.58
2022-12-11T23:10:59.346Z,32.60
2022-12-11T23:13:25.747Z,32.63
2022-12-11T23:15:52.072Z,31.67
2022-12-11T23:18:18.518Z,32.92
2022-12-11T23:20:44.838Z,30.67
2022-12-11T23:23:14.169Z,31.08
2022-12-11T23:25:40.526Z,31.10
2022-12-11T23:28:07.483Z,30.08
2022-12-11T23:30:34.122Z,30.00
2022-12-11T23:33:00.512Z,30.45
2022-12-11T23:35:26.871Z,29.70
2022-12-11T23:37:53.269Z,30.88
2022-12-11T23:40:19.865Z,29.65
2022-12-11T23:42:46.340Z,29.00
2022-12-11T23:45:12.918Z,27.80
2022-12-11T23:47:39.406Z,28.63
2022-12-11T23:50:05.696Z,28.27
2022-12-11T23:52:31.978Z,26.42
2022-12-11T23:54:58.242Z,27.35
2022-12-11T23:57:24.610Z,28.25
2022-12-11T23:59:50.910Z,26.80
